createdAt,value
2023-02-19T00:01:55.192Z,87.09
2023-02-19T00:04:23.707Z,87.11
2023-02-19T00:06:53.214Z,87.03
2023-02-19T00:09:21.820Z,87.52
2023-02-19T00:11:49.957Z,87.63
2023-02-19T00:14:21.583Z,87.51
2023-02-19T00:16:50.265Z,87.03
2023-02-19T00:19:21.079Z,87.20
2023-02-19T00:21:51.821Z,86.94
2023-02-19T00:24:22.495Z,87.09
2023-02-19T00:26:51.189Z,87.56
2023-02-19T00:29:22.000Z,87.21
2023-02-19T00:31:50.496Z,87.09
2023-02-19T00:34:18.713Z,87.28
2023-02-19T00:36:46.892Z,86.84
2023-02-19T00:39:18.552Z,86.79
2023-02-19T00:41:48.414Z,86.84
2023-02-19T00:44:17.035Z,87.07
2023-02-19T00:46:48.281Z,87.02
2023-02-19T00:49:21.199Z,86.82
2023-02-19T00:51:50.320Z,86.98
2023-02-19T00:54:19.038Z,86.60
2023-02-19T00:56:48.501Z,87.02
2023-02-19T00:59:17.137Z,87.07
2023-02-19T01:01:46.219Z,87.88
2023-02-19T01:04:16.332Z,88.63
2023-02-19T01:06:44.613Z,89.42
2023-02-19T01:09:13.523Z,89.70
2023-02-19T01:11:41.688Z,91.07
2023-02-19T01:14:11.806Z,91.29
2023-02-19T01:16:39.979Z,91.79
2023-02-19T01:19:08.795Z,91.69
2023-02-19T01:21:36.869Z,92.22
2023-02-19T01:24:05.424Z,92.93
2023-02-19T01:26:34.811Z,92.86
2023-02-19T01:29:03.096Z,93.27
2023-02-19T01:31:33.008Z,93.81
2023-02-19T01:34:03.636Z,94.31
2023-02-19T01:36:34.804Z,94.50
2023-02-19T01:39:05.120Z,94.30
2023-02-19T01:41:36.914Z,95.26
2023-02-19T01:44:08.765Z,95.35
2023-02-19T01:46:40.148Z,92.67
2023-02-19T01:49:13.892Z,92.60
2023-02-19T01:51:48.854Z,93.37
2023-02-19T01:54:23.781Z,92.42
2023-02-19T01:56:52.935Z,92.37
2023-02-19T01:59:21.388Z,91.90
2023-02-19T02:01:51.380Z,91.72
2023-02-19T02:04:20.418Z,91.44
2023-02-19T02:06:53.178Z,91.28
2023-02-19T02:09:41.804Z,90.91
2023-02-19T02:12:10.183Z,90.39
2023-02-19T02:14:41.891Z,90.36
2023-02-19T02:17:20.558Z,90.29
2023-02-19T02:20:21.077Z,90.42
2023-02-19T02:23:00.793Z,90.01
2023-02-19T02:26:05.894Z,90.23
2023-02-19T02:29:02.346Z,89.61
2023-02-19T02:31:40.407Z,90.31
2023-02-19T02:34:18.972Z,90.16
2023-02-19T02:36:55.020Z,90.16
2023-02-19T02:39:27.734Z,90.76
2023-02-19T02:42:18.154Z,90.77
2023-02-19T02:45:07.465Z,90.66
2023-02-19T02:47:44.825Z,91.44
2023-02-19T02:50:21.837Z,91.44
2023-02-19T02:53:14.997Z,91.60
2023-02-19T02:55:50.517Z,91.65
2023-02-19T02:58:20.408Z,91.98
2023-02-19T03:01:15.055Z,92.04
2023-02-19T03:03:48.773Z,92.65
2023-02-19T03:06:20.492Z,92.39
2023-02-19T03:08:57.331Z,93.03
2023-02-19T03:11:43.309Z,93.02
2023-02-19T03:14:36.604Z,92.74
2023-02-19T03:17:29.763Z,93.50
2023-02-19T03:20:07.087Z,90.61
2023-02-19T03:22:38.814Z,89.61
2023-02-19T03:25:42.424Z,89.32
2023-02-19T03:28:13.725Z,89.66
2023-02-19T03:30:48.293Z,89.53
2023-02-19T03:33:22.401Z,89.79
2023-02-19T03:36:01.379Z,89.55
2023-02-19T03:38:38.669Z,89.65
2023-02-19T03:41:16.758Z,90.20
2023-02-19T03:43:58.565Z,90.50
2023-02-19T03:46:37.636Z,90.26
2023-02-19T03:49:16.870Z,90.07
2023-02-19T03:51:54.623Z,89.80
2023-02-19T03:54:33.436Z,90.58
2023-02-19T03:57:13.415Z,90.28
2023-02-19T03:59:50.230Z,89.70
2023-02-19T04:02:29.422Z,89.83
2023-02-19T04:05:07.945Z,90.13
2023-02-19T04:07:45.588Z,89.30
2023-02-19T04:10:16.050Z,89.91
2023-02-19T04:12:50.611Z,90.20
2023-02-19T04:15:24.366Z,90.46
2023-02-19T04:17:58.220Z,90.08
2023-02-19T04:20:30.614Z,89.54
2023-02-19T04:23:00.813Z,90.45
2023-02-19T04:25:30.413Z,90.12
2023-02-19T04:27:59.594Z,90.21
2023-02-19T04:30:28.019Z,89.66
2023-02-19T04:32:56.456Z,89.33
2023-02-19T04:35:24.858Z,89.84
2023-02-19T04:37:52.944Z,90.26
2023-02-19T04:40:22.442Z,90.33
2023-02-19T04:42:50.532Z,90.21
2023-02-19T04:45:18.754Z,90.27
2023-02-19T04:47:46.829Z,90.25
2023-02-19T04:50:15.008Z,89.81
2023-02-19T04:52:43.083Z,90.15
2023-02-19T04:55:11.539Z,90.16
2023-02-19T04:57:40.974Z,89.61
2023-02-19T05:00:11.301Z,89.25
2023-02-19T05:02:39.751Z,88.97
2023-02-19T05:05:08.206Z,88.51
2023-02-19T05:07:36.297Z,87.96
2023-02-19T05:10:06.694Z,88.43
2023-02-19T05:12:34.747Z,88.25
2023-02-19T05:15:04.223Z,88.72
2023-02-19T05:17:35.048Z,88.62
2023-02-19T05:20:03.227Z,88.14
2023-02-19T05:22:31.595Z,88.30
2023-02-19T05:24:59.618Z,88.96
2023-02-19T05:27:27.736Z,88.75
2023-02-19T05:29:55.748Z,88.56
2023-02-19T05:32:25.168Z,88.32
2023-02-19T05:34:53.234Z,88.48
2023-02-19T05:37:21.322Z,87.79
2023-02-19T05:39:50.093Z,88.05
2023-02-19T05:42:18.297Z,87.82
2023-02-19T05:44:46.380Z,88.43
2023-02-19T05:47:14.404Z,88.76
2023-02-19T05:49:43.794Z,88.50
2023-02-19T05:52:11.828Z,88.49
2023-02-19T05:54:40.104Z,87.74
2023-02-19T05:57:08.120Z,87.52
2023-02-19T05:59:36.162Z,87.29
2023-02-19T06:02:04.202Z,87.20
2023-02-19T06:04:32.259Z,89.08
2023-02-19T06:07:02.195Z,87.94
2023-02-19T06:09:30.285Z,87.83
2023-02-19T06:11:58.322Z,87.55
2023-02-19T06:14:26.585Z,88.13
2023-02-19T06:16:54.631Z,88.25
2023-02-19T06:19:22.648Z,88.09
2023-02-19T06:21:51.925Z,87.15
2023-02-19T06:24:21.333Z,88.15
2023-02-19T06:26:49.512Z,88.15
2023-02-19T06:29:18.463Z,87.54
2023-02-19T06:31:46.829Z,87.81
2023-02-19T06:34:15.003Z,86.89
2023-02-19T06:36:43.064Z,87.26
2023-02-19T06:39:11.697Z,87.05
2023-02-19T06:41:41.083Z,88.24
2023-02-19T06:44:09.254Z,88.34
2023-02-19T06:46:37.636Z,87.16
2023-02-19T06:49:06.794Z,87.83
2023-02-19T06:51:35.132Z,87.59
2023-02-19T06:54:03.272Z,88.03
2023-02-19T06:56:34.226Z,87.80
2023-02-19T06:59:07.407Z,87.30
2023-02-19T07:01:37.412Z,86.42
2023-02-19T07:04:07.541Z,87.40
2023-02-19T07:06:36.858Z,87.59
2023-02-19T07:09:07.536Z,87.57
2023-02-19T07:11:38.956Z,88.05
2023-02-19T07:14:18.316Z,88.34
2023-02-19T07:16:47.382Z,86.67
2023-02-19T07:19:16.845Z,87.97
2023-02-19T07:21:44.886Z,87.65
2023-02-19T07:24:13.080Z,87.65
2023-02-19T07:26:41.142Z,88.08
2023-02-19T07:29:11.272Z,87.32
2023-02-19T07:31:39.402Z,87.84
2023-02-19T07:34:08.718Z,87.87
2023-02-19T07:36:36.934Z,87.42
2023-02-19T07:39:05.520Z,87.72
2023-02-19T07:41:33.948Z,87.83
2023-02-19T07:44:01.980Z,87.37
2023-02-19T07:46:32.145Z,87.29
2023-02-19T07:49:01.343Z,87.34
2023-02-19T07:51:29.397Z,87.83
2023-02-19T07:53:57.426Z,87.01
2023-02-19T07:56:25.490Z,88.40
2023-02-19T07:58:53.526Z,86.84
2023-02-19T08:01:45.065Z,87.13
2023-02-19T08:04:15.316Z,86.60
2023-02-19T08:06:44.083Z,87.01
2023-02-19T08:09:12.784Z,87.48
2023-02-19T08:11:58.531Z,87.26
2023-02-19T08:14:27.626Z,87.02
2023-02-19T08:16:56.589Z,87.84
2023-02-19T08:19:26.153Z,87.95
2023-02-19T08:21:54.472Z,86.73
2023-02-19T08:24:22.578Z,87.65
2023-02-19T08:26:50.796Z,87.02
2023-02-19T08:29:18.869Z,87.93
2023-02-19T08:31:47.162Z,87.82
2023-02-19T08:34:15.284Z,87.85
2023-02-19T08:36:44.641Z,87.68
2023-02-19T08:39:12.737Z,88.04
2023-02-19T08:41:40.780Z,88.23
2023-02-19T08:44:09.179Z,87.74
2023-02-19T08:46:37.249Z,87.12
2023-02-19T08:49:05.275Z,87.62
2023-02-19T08:51:33.322Z,86.62
2023-02-19T08:54:05.273Z,88.05
2023-02-19T08:56:33.379Z,88.60
2023-02-19T08:59:01.448Z,87.06
2023-02-19T09:01:29.601Z,87.24
2023-02-19T09:03:59.232Z,86.84
2023-02-19T09:06:27.639Z,86.33
2023-02-19T09:08:55.722Z,86.19
2023-02-19T09:11:25.166Z,84.50
2023-02-19T09:13:53.208Z,84.53
2023-02-19T09:16:21.246Z,84.91
2023-02-19T09:18:49.270Z,84.71
2023-02-19T09:21:17.275Z,85.21
2023-02-19T09:23:45.331Z,85.32
2023-02-19T09:26:14.021Z,85.13
2023-02-19T09:28:43.475Z,85.92
2023-02-19T09:31:15.400Z,85.13
2023-02-19T09:33:44.973Z,84.29
2023-02-19T09:36:14.886Z,84.27
2023-02-19T09:38:43.640Z,84.80
2023-02-19T09:41:23.814Z,85.24
2023-02-19T09:43:53.479Z,84.83
2023-02-19T09:46:31.418Z,84.10
2023-02-19T09:49:07.612Z,85.26
2023-02-19T09:51:41.096Z,84.64
2023-02-19T09:54:18.728Z,84.10
2023-02-19T09:56:46.993Z,83.16
2023-02-19T09:59:23.320Z,82.33
2023-02-19T10:02:02.334Z,82.27
2023-02-19T10:04:30.420Z,82.50
2023-02-19T10:07:03.618Z,83.11
2023-02-19T10:09:32.504Z,83.35
2023-02-19T10:12:01.699Z,83.18
2023-02-19T10:14:37.653Z,83.25
2023-02-19T10:17:08.031Z,83.34
2023-02-19T10:19:37.574Z,81.35
2023-02-19T10:22:06.087Z,80.50
2023-02-19T10:24:34.131Z,81.62
2023-02-19T10:27:02.223Z,81.93
2023-02-19T10:29:30.249Z,81.09
2023-02-19T10:32:23.958Z,79.21
2023-02-19T10:35:12.158Z,79.82
2023-02-19T10:37:45.927Z,80.00
2023-02-19T10:40:19.040Z,79.38
2023-02-19T10:42:49.154Z,80.05
2023-02-19T10:45:25.204Z,78.27
2023-02-19T10:47:54.793Z,78.32
2023-02-19T10:50:30.696Z,78.21
2023-02-19T10:53:01.910Z,77.10
2023-02-19T10:55:36.734Z,78.14
2023-02-19T10:58:26.818Z,77.66
2023-02-19T11:01:21.364Z,78.16
2023-02-19T11:03:52.695Z,76.95
2023-02-19T11:06:27.990Z,76.55
2023-02-19T11:09:00.760Z,75.41
2023-02-19T11:11:36.179Z,74.78
2023-02-19T11:14:15.311Z,76.52
2023-02-19T11:16:47.629Z,76.74
2023-02-19T11:19:32.658Z,75.20
2023-02-19T11:22:02.597Z,74.83
2023-02-19T11:24:37.120Z,75.52
2023-02-19T11:27:15.245Z,77.04
2023-02-19T11:29:43.314Z,76.50
2023-02-19T11:32:29.299Z,72.21
2023-02-19T11:35:23.569Z,68.53
2023-02-19T11:38:00.550Z,72.18
2023-02-19T11:40:41.416Z,69.55
2023-02-19T11:43:34.276Z,70.15
2023-02-19T11:46:14.934Z,70.28
2023-02-19T11:48:56.925Z,70.82
2023-02-19T11:52:04.139Z,70.10
2023-02-19T11:54:56.025Z,69.82
2023-02-19T11:57:42.713Z,70.29
2023-02-19T12:00:27.870Z,66.51
2023-02-19T12:03:45.097Z,68.30
2023-02-19T12:06:29.585Z,66.43
2023-02-19T12:09:27.010Z,66.18
2023-02-19T12:12:25.218Z,64.94
2023-02-19T12:15:18.018Z,66.15
2023-02-19T12:18:30.353Z,68.44
2023-02-19T12:21:16.589Z,66.80
2023-02-19T12:24:06.273Z,68.43
2023-02-19T12:26:47.752Z,70.41
2023-02-19T12:29:51.532Z,68.43
2023-02-19T12:32:57.584Z,68.67
2023-02-19T12:35:45.854Z,66.70
2023-02-19T12:38:24.261Z,67.17
2023-02-19T12:41:13.721Z,66.47
2023-02-19T12:43:53.128Z,64.57
2023-02-19T12:46:29.021Z,62.27
2023-02-19T12:49:06.753Z,67.84
2023-02-19T12:51:44.759Z,65.57
2023-02-19T12:54:24.650Z,66.51
2023-02-19T12:57:02.779Z,67.45
2023-02-19T12:59:42.088Z,66.04
2023-02-19T13:02:21.985Z,67.06
2023-02-19T13:04:59.640Z,64.59
2023-02-19T13:07:36.522Z,62.14
2023-02-19T13:10:26.719Z,62.74
2023-02-19T13:12:59.450Z,61.49
2023-02-19T13:15:37.777Z,61.08
2023-02-19T13:18:15.360Z,59.58
2023-02-19T13:20:46.529Z,60.56
2023-02-19T13:23:39.686Z,63.77
2023-02-19T13:26:53.011Z,59.88
2023-02-19T13:29:52.969Z,58.69
2023-02-19T13:32:54.452Z,57.77
2023-02-19T13:36:06.066Z,59.13
2023-02-19T13:38:39.451Z,61.07
2023-02-19T13:41:18.297Z,58.97
2023-02-19T13:43:47.486Z,59.01
2023-02-19T13:46:18.426Z,60.15
2023-02-19T13:48:48.007Z,58.95
2023-02-19T13:51:51.092Z,58.11
2023-02-19T13:54:29.275Z,57.53
2023-02-19T13:57:28.597Z,58.56
2023-02-19T13:59:58.934Z,62.57
2023-02-19T14:02:33.163Z,59.37
2023-02-19T14:05:07.880Z,57.25
2023-02-19T14:07:54.636Z,58.07
2023-02-19T14:11:02.313Z,58.41
2023-02-19T14:14:01.548Z,59.72
2023-02-19T14:17:01.069Z,57.59
2023-02-19T14:20:05.401Z,58.76
2023-02-19T14:23:16.133Z,59.80
2023-02-19T14:25:53.578Z,59.18
2023-02-19T14:28:30.375Z,60.50
2023-02-19T14:31:03.256Z,59.83
2023-02-19T14:33:37.520Z,60.55
2023-02-19T14:36:17.339Z,61.36
2023-02-19T14:38:51.461Z,61.08
2023-02-19T14:41:22.939Z,59.85
2023-02-19T14:43:54.810Z,60.76
2023-02-19T14:46:32.339Z,59.49
2023-02-19T14:49:08.287Z,59.10
2023-02-19T14:51:44.038Z,58.96
2023-02-19T14:54:18.514Z,58.61
2023-02-19T14:56:52.700Z,55.66
2023-02-19T14:59:28.586Z,57.82
2023-02-19T15:02:00.655Z,58.24
2023-02-19T15:04:36.630Z,57.96
2023-02-19T15:07:14.386Z,56.86
2023-02-19T15:09:47.852Z,55.35
2023-02-19T15:12:20.835Z,57.53
2023-02-19T15:14:52.802Z,57.02
2023-02-19T15:17:28.882Z,57.85
2023-02-19T15:20:03.039Z,57.50
2023-02-19T15:22:34.021Z,58.48
2023-02-19T15:25:03.075Z,57.94
2023-02-19T15:27:32.815Z,58.01
2023-02-19T15:30:00.994Z,59.51
2023-02-19T15:32:29.497Z,59.27
2023-02-19T15:35:00.718Z,59.86
2023-02-19T15:37:34.397Z,58.47
2023-02-19T15:40:07.667Z,58.05
2023-02-19T15:42:38.088Z,60.32
2023-02-19T15:45:18.601Z,59.09
2023-02-19T15:47:52.132Z,57.98
2023-02-19T15:50:26.542Z,58.87
2023-02-19T15:53:04.523Z,59.05
2023-02-19T15:55:41.126Z,59.26
2023-02-19T15:58:18.560Z,59.01
2023-02-19T16:00:51.516Z,61.62
2023-02-19T16:03:22.944Z,61.24
2023-02-19T16:06:01.720Z,60.36
2023-02-19T16:08:33.328Z,61.31
2023-02-19T16:11:05.121Z,61.58
2023-02-19T16:13:36.069Z,60.84
2023-02-19T16:16:16.187Z,61.84
2023-02-19T16:18:47.580Z,61.77
2023-02-19T16:21:21.524Z,62.79
2023-02-19T16:23:59.114Z,62.68
2023-02-19T16:26:27.982Z,64.29
2023-02-19T16:28:57.628Z,63.82
2023-02-19T16:31:25.821Z,64.71
2023-02-19T16:33:54.004Z,65.90
2023-02-19T16:36:36.931Z,66.08
2023-02-19T16:39:24.666Z,65.75
2023-02-19T16:42:18.113Z,65.93
2023-02-19T16:44:49.945Z,65.95
2023-02-19T16:47:32.512Z,66.11
2023-02-19T16:50:08.056Z,65.62
2023-02-19T16:52:38.951Z,66.56
2023-02-19T16:55:14.497Z,66.51
2023-02-19T16:57:42.512Z,67.23
2023-02-19T17:00:17.768Z,67.73
2023-02-19T17:02:48.265Z,68.12
2023-02-19T17:05:18.818Z,68.33
2023-02-19T17:07:47.074Z,68.06
2023-02-19T17:10:19.537Z,68.82
2023-02-19T17:12:47.780Z,69.41
2023-02-19T17:15:16.320Z,69.58
2023-02-19T17:17:44.509Z,69.68
2023-02-19T17:20:23.939Z,69.56
2023-02-19T17:22:52.125Z,69.86
2023-02-19T17:25:21.574Z,70.31
2023-02-19T17:27:49.780Z,69.65
2023-02-19T17:30:26.701Z,69.85
2023-02-19T17:32:54.799Z,69.89
2023-02-19T17:35:22.892Z,70.28
2023-02-19T17:37:53.301Z,70.16
2023-02-19T17:40:33.266Z,70.26
2023-02-19T17:43:01.921Z,70.88
2023-02-19T17:45:30.064Z,71.07
2023-02-19T17:47:58.275Z,70.93
2023-02-19T17:50:29.560Z,70.89
2023-02-19T17:52:57.788Z,70.78
2023-02-19T17:55:28.092Z,70.95
2023-02-19T17:57:56.297Z,71.01
2023-02-19T18:00:27.228Z,70.92
2023-02-19T18:02:56.317Z,71.56
2023-02-19T18:05:25.406Z,71.59
2023-02-19T18:07:53.583Z,71.35
2023-02-19T18:10:24.318Z,71.73
2023-02-19T18:12:54.081Z,72.11
2023-02-19T18:15:26.800Z,71.72
2023-02-19T18:17:56.070Z,72.05
2023-02-19T18:20:27.657Z,72.17
2023-02-19T18:22:57.932Z,72.21
2023-02-19T18:25:26.575Z,72.45
2023-02-19T18:27:56.358Z,72.26
2023-02-19T18:30:24.776Z,72.86
2023-02-19T18:32:53.071Z,72.92
2023-02-19T18:35:22.180Z,72.55
2023-02-19T18:37:53.039Z,72.97
2023-02-19T18:40:21.756Z,73.41
2023-02-19T18:42:50.267Z,73.34
2023-02-19T18:45:19.915Z,73.11
2023-02-19T18:47:48.767Z,73.72
2023-02-19T18:50:18.154Z,73.23
2023-02-19T18:52:46.260Z,74.12
2023-02-19T18:55:14.342Z,73.92
2023-02-19T18:57:42.594Z,74.23
2023-02-19T19:00:17.353Z,74.05
2023-02-19T19:02:49.745Z,74.41
2023-02-19T19:05:22.993Z,74.62
2023-02-19T19:07:52.544Z,74.80
2023-02-19T19:10:22.092Z,74.50
2023-02-19T19:12:50.372Z,74.92
2023-02-19T19:15:19.441Z,75.04
2023-02-19T19:17:50.280Z,75.63
2023-02-19T19:20:20.064Z,75.88
2023-02-19T19:22:50.956Z,75.05
2023-02-19T19:25:19.588Z,75.92
2023-02-19T19:27:50.307Z,75.91
2023-02-19T19:30:19.983Z,75.86
2023-02-19T19:32:52.110Z,76.10
2023-02-19T19:35:23.021Z,76.39
2023-02-19T19:37:51.394Z,76.88
2023-02-19T19:40:20.443Z,76.63
2023-02-19T19:42:51.302Z,76.63
2023-02-19T19:45:19.782Z,76.70
2023-02-19T19:47:49.993Z,76.79
2023-02-19T19:50:19.228Z,77.46
2023-02-19T19:52:47.264Z,77.23
2023-02-19T19:55:16.165Z,77.47
2023-02-19T19:57:44.554Z,76.97
2023-02-19T20:00:17.736Z,77.82
2023-02-19T20:02:46.822Z,77.79
2023-02-19T20:05:16.950Z,77.43
2023-02-19T20:07:45.366Z,77.68
2023-02-19T20:10:15.938Z,77.33
2023-02-19T20:12:44.403Z,77.68
2023-02-19T20:15:13.255Z,77.29
2023-02-19T20:17:41.371Z,77.14
2023-02-19T20:20:11.161Z,77.46
2023-02-19T20:22:40.749Z,77.55
2023-02-19T20:25:09.184Z,77.81
2023-02-19T20:27:37.312Z,77.92
2023-02-19T20:30:07.076Z,77.72
2023-02-19T20:32:35.953Z,77.19
2023-02-19T20:35:03.993Z,77.89
2023-02-19T20:37:32.079Z,77.54
2023-02-19T20:40:01.498Z,77.35
2023-02-19T20:42:29.527Z,77.38
2023-02-19T20:44:57.714Z,77.85
2023-02-19T20:47:25.768Z,77.71
2023-02-19T20:49:53.873Z,77.87
2023-02-19T20:52:22.131Z,77.90
2023-02-19T20:54:50.179Z,77.91
2023-02-19T20:57:19.608Z,77.68
2023-02-19T20:59:47.688Z,77.87
2023-02-19T21:02:21.179Z,77.95
2023-02-19T21:04:49.504Z,78.17
2023-02-19T21:07:18.099Z,78.32
2023-02-19T21:09:46.199Z,78.18
2023-02-19T21:12:14.263Z,78.56
2023-02-19T21:14:43.948Z,78.36
2023-02-19T21:17:12.099Z,78.53
2023-02-19T21:19:40.260Z,78.73
2023-02-19T21:22:08.610Z,78.65
2023-02-19T21:24:37.115Z,78.54
2023-02-19T21:27:05.616Z,78.72
2023-02-19T21:29:33.711Z,78.66
2023-02-19T21:32:03.276Z,78.49
2023-02-19T21:34:31.392Z,78.54
2023-02-19T21:36:59.810Z,78.65
2023-02-19T21:39:31.102Z,79.00
2023-02-19T21:42:00.127Z,79.36
2023-02-19T21:44:28.167Z,79.02
2023-02-19T21:46:56.325Z,79.42
2023-02-19T21:49:25.753Z,79.08
2023-02-19T21:51:54.127Z,79.91
2023-02-19T21:54:26.440Z,79.31
2023-02-19T21:56:55.802Z,80.06
2023-02-19T21:59:24.392Z,80.35
2023-02-19T22:01:52.471Z,80.66
2023-02-19T22:04:24.472Z,80.47
2023-02-19T22:06:57.189Z,80.73
2023-02-19T22:09:25.433Z,81.00
2023-02-19T22:11:53.511Z,81.24
2023-02-19T22:14:21.588Z,80.99
2023-02-19T22:16:49.693Z,81.74
2023-02-19T22:19:17.708Z,81.41
2023-02-19T22:21:46.340Z,81.66
2023-02-19T22:24:22.230Z,81.39
2023-02-19T22:26:51.490Z,81.63
2023-02-19T22:29:19.550Z,81.75
2023-02-19T22:31:47.861Z,81.61
2023-02-19T22:34:17.324Z,81.65
2023-02-19T22:36:45.805Z,82.06
2023-02-19T22:39:21.397Z,82.12
2023-02-19T22:41:50.193Z,82.48
2023-02-19T22:44:19.424Z,82.46
2023-02-19T22:46:51.504Z,82.31
2023-02-19T22:49:21.507Z,82.01
2023-02-19T22:51:54.517Z,82.26
2023-02-19T22:54:26.811Z,82.89
2023-02-19T22:56:55.573Z,82.42
2023-02-19T22:59:24.139Z,82.47
2023-02-19T23:01:52.739Z,82.71
2023-02-19T23:04:22.606Z,82.72
2023-02-19T23:06:51.299Z,82.64
2023-02-19T23:09:24.663Z,82.12
2023-02-19T23:11:54.142Z,82.94
2023-02-19T23:14:24.268Z,83.14
2023-02-19T23:16:52.356Z,82.67
2023-02-19T23:19:20.426Z,82.58
2023-02-19T23:21:48.642Z,82.53
2023-02-19T23:24:17.782Z,82.36
2023-02-19T23:26:49.639Z,83.10
2023-02-19T23:29:20.953Z,82.85
2023-02-19T23:31:49.134Z,82.85
2023-02-19T23:34:18.350Z,83.07
2023-02-19T23:36:48.800Z,82.92
2023-02-19T23:39:20.300Z,83.30
2023-02-19T23:41:52.536Z,83.13
2023-02-19T23:44:21.976Z,83.66
2023-02-19T23:46:51.435Z,84.21
2023-02-19T23:49:20.875Z,84.31
2023-02-19T23:51:49.036Z,84.36
2023-02-19T23:54:17.180Z,84.22
2023-02-19T23:56:45.413Z,84.51
2023-02-19T23:59:15.459Z,83.85
